createdAt,value
2023-04-16T00:00:47.598Z,3.09
2023-04-16T00:01:47.614Z,3.08
2023-04-16T00:02:47.703Z,3.07
2023-04-16T00:03:47.850Z,3.06
2023-04-16T00:04:47.611Z,3.05
2023-04-16T00:05:47.537Z,3.04
2023-04-16T00:06:47.531Z,3.02
2023-04-16T00:07:47.515Z,3.00
2023-04-16T00:08:47.483Z,3.00
2023-04-16T00:09:47.477Z,3.00
2023-04-16T00:11:08.449Z,3.00
2023-04-16T00:11:47.474Z,3.00
2023-04-16T00:12:47.460Z,3.00
2023-04-16T00:13:47.425Z,2.98
2023-04-16T00:14:47.433Z,2.96
2023-04-16T00:15:47.388Z,2.95
2023-04-16T00:16:47.474Z,2.94
2023-04-16T00:17:47.425Z,2.93
2023-04-16T00:18:47.436Z,2.92
2023-04-16T00:19:47.332Z,2.92
2023-04-16T00:20:47.353Z,2.91
2023-04-16T00:21:47.383Z,2.91
2023-04-16T00:22:47.337Z,2.90
2023-04-16T00:23:47.296Z,2.89
2023-04-16T00:24:47.299Z,2.89
2023-04-16T00:25:47.259Z,2.89
2023-04-16T00:26:47.309Z,2.89
2023-04-16T00:27:47.304Z,2.89
2023-04-16T00:28:47.253Z,2.90
2023-04-16T00:29:47.230Z,2.90
2023-04-16T00:30:47.235Z,2.91
2023-04-16T00:31:47.203Z,2.92
2023-04-16T00:32:47.289Z,2.93
2023-04-16T00:33:47.197Z,2.94
2023-04-16T00:34:47.155Z,2.94
2023-04-16T00:35:47.151Z,2.94
2023-04-16T00:36:47.161Z,2.95
2023-04-16T00:37:47.136Z,2.95
2023-04-16T00:38:47.111Z,2.94
2023-04-16T00:39:47.108Z,2.93
2023-04-16T00:40:47.101Z,2.92
2023-04-16T00:41:47.110Z,2.92
2023-04-16T00:42:47.059Z,2.92
2023-04-16T00:43:47.058Z,2.92
2023-04-16T00:44:47.055Z,2.93
2023-04-16T00:45:47.088Z,2.94
2023-04-16T00:46:47.216Z,2.94
2023-04-16T00:47:47.053Z,2.96
2023-04-16T00:48:47.022Z,2.96
2023-04-16T00:49:47.012Z,2.97
2023-04-16T00:50:46.975Z,2.97
2023-04-16T00:51:46.949Z,2.97
2023-04-16T00:52:46.928Z,2.97
2023-04-16T00:53:46.936Z,2.97
2023-04-16T00:54:46.913Z,2.97
2023-04-16T00:55:46.937Z,2.98
2023-04-16T00:56:46.913Z,2.98
2023-04-16T00:57:46.886Z,2.98
2023-04-16T00:58:46.846Z,2.99
2023-04-16T00:59:46.835Z,3.00
2023-04-16T01:00:46.852Z,3.01
2023-04-16T01:01:46.899Z,3.02
2023-04-16T01:02:46.939Z,3.02
2023-04-16T01:03:46.886Z,3.02
2023-04-16T01:04:46.798Z,3.03
2023-04-16T01:05:46.762Z,3.04
2023-04-16T01:06:46.778Z,3.04
2023-04-16T01:07:46.763Z,3.04
2023-04-16T01:08:46.765Z,3.04
2023-04-16T01:09:46.723Z,3.04
2023-04-16T01:10:46.726Z,3.05
2023-04-16T01:11:46.683Z,3.05
2023-04-16T01:12:46.710Z,3.06
2023-04-16T01:13:46.669Z,3.06
2023-04-16T01:14:46.657Z,3.07
2023-04-16T01:15:46.684Z,3.07
2023-04-16T01:16:46.647Z,3.08
2023-04-16T01:17:46.715Z,3.08
2023-04-16T01:18:46.637Z,3.09
2023-04-16T01:19:46.599Z,3.09
2023-04-16T01:20:46.599Z,3.10
2023-04-16T01:21:46.587Z,3.09
2023-04-16T01:22:46.549Z,3.09
2023-04-16T01:23:46.557Z,3.09
2023-04-16T01:24:46.571Z,3.09
2023-04-16T01:25:46.523Z,3.09
2023-04-16T01:26:46.530Z,3.09
2023-04-16T01:27:46.494Z,3.09
2023-04-16T01:28:46.497Z,3.10
2023-04-16T01:29:46.459Z,3.11
2023-04-16T01:30:46.495Z,3.12
2023-04-16T01:31:46.530Z,3.14
2023-04-16T01:32:46.481Z,3.15
2023-04-16T01:33:46.419Z,3.16
2023-04-16T01:34:46.451Z,3.18
2023-04-16T01:35:46.401Z,3.20
2023-04-16T01:36:46.435Z,3.21
2023-04-16T01:37:46.406Z,3.22
2023-04-16T01:38:46.364Z,3.23
2023-04-16T01:39:46.354Z,3.24
2023-04-16T01:40:46.330Z,3.25
2023-04-16T01:41:46.312Z,3.26
2023-04-16T01:42:46.333Z,3.28
2023-04-16T01:43:46.300Z,3.28
2023-04-16T01:44:46.302Z,3.29
2023-04-16T01:45:46.274Z,3.30
2023-04-16T01:46:46.276Z,3.30
2023-04-16T01:47:46.274Z,3.31
2023-04-16T01:48:46.271Z,3.32
2023-04-16T01:49:46.234Z,3.34
2023-04-16T01:50:46.209Z,3.35
2023-04-16T01:51:46.196Z,3.36
2023-04-16T01:52:46.220Z,3.37
2023-04-16T01:53:46.162Z,3.37
2023-04-16T01:54:46.174Z,3.38
2023-04-16T01:55:46.142Z,3.39
2023-04-16T01:56:46.157Z,3.40
2023-04-16T01:57:46.136Z,3.41
2023-04-16T01:58:46.122Z,3.41
2023-04-16T01:59:46.115Z,3.40
2023-04-16T02:00:46.127Z,3.40
2023-04-16T02:01:46.109Z,3.39
2023-04-16T02:02:46.240Z,3.38
2023-04-16T02:03:46.187Z,3.38
2023-04-16T02:04:46.078Z,3.38
2023-04-16T02:05:46.025Z,3.38
2023-04-16T02:06:46.010Z,3.38
2023-04-16T02:07:46.039Z,3.38
2023-04-16T02:08:45.995Z,3.38
2023-04-16T02:09:45.984Z,3.38
2023-04-16T02:10:45.965Z,3.38
2023-04-16T02:11:45.952Z,3.37
2023-04-16T02:12:45.961Z,3.38
2023-04-16T02:13:45.965Z,3.38
2023-04-16T02:14:45.903Z,3.39
2023-04-16T02:15:45.901Z,3.39
2023-04-16T02:16:45.920Z,3.40
2023-04-16T02:17:45.902Z,3.41
2023-04-16T02:18:45.901Z,3.41
2023-04-16T02:19:45.839Z,3.42
2023-04-16T02:20:45.838Z,3.43
2023-04-16T02:21:45.828Z,3.43
2023-04-16T02:22:45.872Z,3.43
2023-04-16T02:23:45.808Z,3.43
2023-04-16T02:24:45.795Z,3.43
2023-04-16T02:25:45.771Z,3.44
2023-04-16T02:26:45.741Z,3.44
2023-04-16T02:27:45.768Z,3.45
2023-04-16T02:28:45.772Z,3.46
2023-04-16T02:29:45.742Z,3.46
2023-04-16T02:30:45.709Z,3.47
2023-04-16T02:31:45.872Z,3.48
2023-04-16T02:32:45.682Z,3.48
2023-04-16T02:33:45.643Z,3.48
2023-04-16T02:34:45.650Z,3.48
2023-04-16T02:35:45.665Z,3.48
2023-04-16T02:36:45.617Z,3.47
2023-04-16T02:37:45.597Z,3.47
2023-04-16T02:38:45.611Z,3.47
2023-04-16T02:39:45.592Z,3.47
2023-04-16T02:40:45.646Z,3.48
2023-04-16T02:41:45.573Z,3.48
2023-04-16T02:42:45.530Z,3.49
2023-04-16T02:43:45.510Z,3.50
2023-04-16T02:44:45.533Z,3.51
2023-04-16T02:45:45.823Z,3.52
2023-04-16T02:46:45.487Z,3.53
2023-04-16T02:47:45.523Z,3.54
2023-04-16T02:48:45.449Z,3.55
2023-04-16T02:49:45.455Z,3.56
2023-04-16T02:50:45.462Z,3.56
2023-04-16T02:51:45.453Z,3.56
2023-04-16T02:52:45.422Z,3.55
2023-04-16T02:53:45.421Z,3.55
2023-04-16T02:54:45.387Z,3.55
2023-04-16T02:55:45.376Z,3.55
2023-04-16T02:56:45.387Z,3.56
2023-04-16T02:57:45.336Z,3.56
2023-04-16T02:58:45.320Z,3.56
2023-04-16T02:59:45.566Z,3.56
2023-04-16T03:00:45.319Z,3.55
2023-04-16T03:01:45.350Z,3.55
2023-04-16T03:02:45.409Z,3.54
2023-04-16T03:03:45.317Z,3.54
2023-04-16T03:04:45.259Z,3.54
2023-04-16T03:05:45.296Z,3.54
2023-04-16T03:06:45.229Z,3.54
2023-04-16T03:07:45.215Z,3.55
2023-04-16T03:08:45.217Z,3.55
2023-04-16T03:09:45.176Z,3.55
2023-04-16T03:10:45.194Z,3.55
2023-04-16T03:11:45.162Z,3.55
2023-04-16T03:12:45.150Z,3.55
2023-04-16T03:13:45.138Z,3.55
2023-04-16T03:14:45.125Z,3.56
2023-04-16T03:15:45.163Z,3.57
2023-04-16T03:16:45.098Z,3.57
2023-04-16T03:17:45.163Z,3.57
2023-04-16T03:18:45.072Z,3.57
2023-04-16T03:19:45.063Z,3.57
2023-04-16T03:20:45.085Z,3.57
2023-04-16T03:21:45.045Z,3.58
2023-04-16T03:22:45.056Z,3.58
2023-04-16T03:23:45.021Z,3.58
2023-04-16T03:24:45.007Z,3.59
2023-04-16T03:25:44.988Z,3.59
2023-04-16T03:26:45.013Z,3.59
2023-04-16T03:27:44.994Z,3.59
2023-04-16T03:28:44.953Z,3.59
2023-04-16T03:29:44.953Z,3.59
2023-04-16T03:30:44.936Z,3.59
2023-04-16T03:31:44.933Z,3.59
2023-04-16T03:32:45.056Z,3.59
2023-04-16T03:33:44.878Z,3.59
2023-04-16T03:34:44.893Z,3.59
2023-04-16T03:35:44.900Z,3.59
2023-04-16T03:36:44.840Z,3.60
2023-04-16T03:37:44.856Z,3.61
2023-04-16T03:38:44.834Z,3.61
2023-04-16T03:39:44.805Z,3.61
2023-04-16T03:40:44.840Z,3.62
2023-04-16T03:41:44.827Z,3.61
2023-04-16T03:42:44.777Z,3.61
2023-04-16T03:43:44.777Z,3.61
2023-04-16T03:44:44.765Z,3.61
2023-04-16T03:45:44.759Z,3.61
2023-04-16T03:46:44.743Z,3.62
2023-04-16T03:47:44.774Z,3.62
2023-04-16T03:48:44.701Z,3.62
2023-04-16T03:49:44.697Z,3.62
2023-04-16T03:50:44.667Z,3.63
2023-04-16T03:51:44.684Z,3.63
2023-04-16T03:52:44.672Z,3.63
2023-04-16T03:53:44.734Z,3.63
2023-04-16T03:54:44.620Z,3.63
2023-04-16T03:55:44.629Z,3.63
2023-04-16T03:56:44.623Z,3.63
2023-04-16T03:57:44.584Z,3.63
2023-04-16T03:58:44.583Z,3.63
2023-04-16T03:59:44.555Z,3.63
2023-04-16T04:00:44.540Z,3.63
2023-04-16T04:01:44.554Z,3.63
2023-04-16T04:02:44.749Z,3.63
2023-04-16T04:03:44.706Z,3.63
2023-04-16T04:04:44.665Z,3.63
2023-04-16T04:05:44.468Z,3.63
2023-04-16T04:06:44.455Z,3.63
2023-04-16T04:07:44.488Z,3.63
2023-04-16T04:08:44.510Z,3.63
2023-04-16T04:09:44.438Z,3.64
2023-04-16T04:10:44.449Z,3.64
2023-04-16T04:11:44.428Z,3.65
2023-04-16T04:12:44.406Z,3.66
2023-04-16T04:13:44.410Z,3.66
2023-04-16T04:14:44.363Z,3.66
2023-04-16T04:15:44.344Z,3.65
2023-04-16T04:16:44.470Z,3.65
2023-04-16T04:17:44.338Z,3.65
2023-04-16T04:18:44.556Z,3.65
2023-04-16T04:19:54.277Z,3.65
2023-04-16T04:20:44.302Z,3.65
2023-04-16T04:21:44.291Z,3.65
2023-04-16T04:22:44.278Z,3.66
2023-04-16T04:23:44.250Z,3.66
2023-04-16T04:24:44.257Z,3.66
2023-04-16T04:25:44.235Z,3.66
2023-04-16T04:26:44.248Z,3.65
2023-04-16T04:27:44.227Z,3.65
2023-04-16T04:28:44.192Z,3.64
2023-04-16T04:29:44.196Z,3.64
2023-04-16T04:30:44.154Z,3.64
2023-04-16T04:31:44.178Z,3.64
2023-04-16T04:32:44.183Z,3.65
2023-04-16T04:33:44.150Z,3.65
2023-04-16T04:34:44.139Z,3.66
2023-04-16T04:35:44.088Z,3.66
2023-04-16T04:36:44.079Z,3.66
2023-04-16T04:37:44.087Z,3.67
2023-04-16T04:38:44.046Z,3.67
2023-04-16T04:39:44.057Z,3.67
2023-04-16T04:40:44.031Z,3.67
2023-04-16T04:41:44.008Z,3.67
2023-04-16T04:42:43.995Z,3.67
2023-04-16T04:43:44.033Z,3.68
2023-04-16T04:44:43.982Z,3.68
2023-04-16T04:45:43.998Z,3.68
2023-04-16T04:46:43.943Z,3.69
2023-04-16T04:47:43.973Z,3.70
2023-04-16T04:48:43.941Z,3.71
2023-04-16T04:49:43.921Z,3.72
2023-04-16T04:50:43.909Z,3.72
2023-04-16T04:51:43.904Z,3.73
2023-04-16T04:52:43.912Z,3.74
2023-04-16T04:53:43.943Z,3.75
2023-04-16T04:54:43.937Z,3.76
2023-04-16T04:55:43.868Z,3.76
2023-04-16T04:56:43.829Z,3.77
2023-04-16T04:57:43.799Z,3.78
2023-04-16T04:58:43.837Z,3.79
2023-04-16T04:59:43.791Z,3.79
2023-04-16T05:00:43.874Z,3.80
2023-04-16T05:01:43.785Z,3.80
2023-04-16T05:02:43.866Z,3.81
2023-04-16T05:03:43.788Z,3.81
2023-04-16T05:04:43.772Z,3.82
2023-04-16T05:05:43.710Z,3.82
2023-04-16T05:06:43.729Z,3.83
2023-04-16T05:07:43.713Z,3.83
2023-04-16T05:08:43.685Z,3.83
2023-04-16T05:09:43.669Z,3.83
2023-04-16T05:10:43.672Z,3.84
2023-04-16T05:11:43.655Z,3.84
2023-04-16T05:12:43.615Z,3.85
2023-04-16T05:13:43.615Z,3.85
2023-04-16T05:14:43.612Z,3.86
2023-04-16T05:15:43.640Z,3.86
2023-04-16T05:16:43.628Z,3.87
2023-04-16T05:17:43.602Z,3.87
2023-04-16T05:18:43.540Z,3.87
2023-04-16T05:19:43.524Z,3.87
2023-04-16T05:20:43.545Z,3.87
2023-04-16T05:21:43.530Z,3.87
2023-04-16T05:22:43.530Z,3.87
2023-04-16T05:23:43.502Z,3.87
2023-04-16T05:24:43.524Z,3.88
2023-04-16T05:25:43.502Z,3.89
2023-04-16T05:26:43.458Z,3.90
2023-04-16T05:27:43.490Z,3.91
2023-04-16T05:28:43.433Z,3.91
2023-04-16T05:29:43.426Z,3.92
2023-04-16T05:30:43.438Z,3.93
2023-04-16T05:31:43.397Z,3.93
2023-04-16T05:32:43.429Z,3.94
2023-04-16T05:33:43.379Z,3.95
2023-04-16T05:34:43.342Z,3.96
2023-04-16T05:35:43.338Z,3.96
2023-04-16T05:36:43.342Z,3.97
2023-04-16T05:37:43.318Z,3.98
2023-04-16T05:38:43.382Z,3.98
2023-04-16T05:39:43.319Z,3.99
2023-04-16T05:40:43.300Z,3.99
2023-04-16T05:41:43.266Z,3.98
2023-04-16T05:42:43.239Z,3.96
2023-04-16T05:43:43.232Z,3.95
2023-04-16T05:44:43.241Z,3.93
2023-04-16T05:45:43.294Z,3.92
2023-04-16T05:46:43.256Z,3.92
2023-04-16T05:47:43.227Z,3.92
2023-04-16T05:48:43.188Z,3.91
2023-04-16T05:49:43.170Z,3.91
2023-04-16T05:50:44.076Z,3.91
2023-04-16T05:51:43.192Z,3.91
2023-04-16T05:52:43.202Z,3.91
2023-04-16T05:53:43.109Z,3.90
2023-04-16T05:54:43.109Z,3.90
2023-04-16T05:55:43.104Z,3.90
2023-04-16T05:56:43.090Z,3.90
2023-04-16T05:57:43.075Z,3.91
2023-04-16T05:58:43.082Z,3.91
2023-04-16T05:59:43.044Z,3.92
2023-04-16T06:00:43.079Z,3.92
2023-04-16T06:01:43.058Z,3.92
2023-04-16T06:02:43.137Z,3.92
2023-04-16T06:03:43.049Z,3.92
2023-04-16T06:04:43.023Z,3.92
2023-04-16T06:05:43.018Z,3.93
2023-04-16T06:06:42.963Z,3.95
2023-04-16T06:07:42.956Z,3.96
2023-04-16T06:08:42.950Z,3.99
2023-04-16T06:09:42.948Z,4.01
2023-04-16T06:10:42.911Z,4.04
2023-04-16T06:11:42.901Z,4.06
2023-04-16T06:12:42.925Z,4.09
2023-04-16T06:13:42.859Z,4.11
2023-04-16T06:14:42.833Z,4.13
2023-04-16T06:15:42.894Z,4.15
2023-04-16T06:16:43.565Z,4.17
2023-04-16T06:17:42.837Z,4.19
2023-04-16T06:18:42.785Z,4.20
2023-04-16T06:19:42.778Z,4.21
2023-04-16T06:20:42.765Z,4.22
2023-04-16T06:21:42.788Z,4.24
2023-04-16T06:22:42.766Z,4.25
2023-04-16T06:23:42.759Z,4.25
2023-04-16T06:24:42.729Z,4.22
2023-04-16T06:25:42.725Z,4.20
2023-04-16T06:26:42.725Z,4.18
2023-04-16T06:30:26.517Z,4.18
2023-04-16T06:30:32.356Z,4.18
2023-04-16T06:31:32.394Z,4.18
2023-04-16T06:32:32.368Z,4.16
2023-04-16T06:33:32.355Z,4.15
2023-04-16T06:34:32.324Z,4.15
2023-04-16T06:35:32.312Z,4.16
2023-04-16T06:36:32.281Z,4.18
2023-04-16T06:37:32.285Z,4.20
2023-04-16T06:38:32.271Z,4.23
2023-04-16T06:39:32.262Z,4.26
2023-04-16T06:40:32.248Z,4.28
2023-04-16T06:41:32.221Z,4.30
2023-04-16T06:42:32.231Z,4.30
2023-04-16T06:43:32.208Z,4.31
2023-04-16T06:44:32.213Z,4.30
2023-04-16T06:45:32.293Z,4.29
2023-04-16T06:46:32.200Z,4.30
2023-04-16T06:47:32.178Z,4.31
2023-04-16T06:48:32.177Z,4.32
2023-04-16T06:49:32.110Z,4.34
2023-04-16T06:50:32.175Z,4.34
2023-04-16T06:51:32.087Z,4.36
2023-04-16T06:52:32.120Z,4.37
2023-04-16T06:53:32.107Z,4.39
2023-04-16T06:54:32.050Z,4.40
2023-04-16T06:55:32.061Z,4.42
2023-04-16T06:56:32.041Z,4.46
2023-04-16T06:57:32.011Z,4.50
2023-04-16T06:58:32.007Z,4.53
2023-04-16T06:59:32.020Z,4.57
2023-04-16T07:00:32.007Z,4.61
2023-04-16T07:01:32.014Z,4.65
2023-04-16T07:02:32.169Z,4.67
2023-04-16T07:03:32.077Z,4.68
2023-04-16T07:04:31.975Z,4.68
2023-04-16T07:05:31.922Z,4.67
2023-04-16T07:06:31.920Z,4.65
2023-04-16T07:07:31.917Z,4.64
2023-04-16T07:08:31.949Z,4.64
2023-04-16T07:09:31.908Z,4.64
2023-04-16T07:10:31.855Z,4.64
2023-04-16T07:11:31.859Z,4.64
2023-04-16T07:12:31.833Z,4.63
2023-04-16T07:13:31.826Z,4.65
2023-04-16T07:14:32.559Z,4.68
2023-04-16T07:15:31.811Z,4.71
2023-04-16T07:16:31.822Z,4.75
2023-04-16T07:17:31.780Z,4.77
2023-04-16T07:18:31.767Z,4.78
2023-04-16T07:19:31.774Z,4.80
2023-04-16T07:20:31.773Z,4.83
2023-04-16T07:21:31.710Z,4.86
2023-04-16T07:22:31.736Z,4.89
2023-04-16T07:23:31.674Z,4.93
2023-04-16T07:24:31.920Z,4.96
2023-04-16T07:25:31.655Z,5.01
2023-04-16T07:26:31.674Z,5.06
2023-04-16T07:27:31.646Z,5.10
2023-04-16T07:28:31.625Z,5.13
2023-04-16T07:29:31.852Z,5.15
2023-04-16T07:30:31.632Z,5.18
2023-04-16T07:31:31.736Z,5.21
2023-04-16T07:32:31.624Z,5.22
2023-04-16T07:33:31.555Z,5.21
2023-04-16T07:34:31.557Z,5.20
2023-04-16T07:35:31.548Z,5.20
2023-04-16T07:36:31.544Z,5.24
2023-04-16T07:37:31.511Z,5.29
2023-04-16T07:38:31.573Z,5.33
2023-04-16T07:39:31.487Z,5.34
2023-04-16T07:40:31.487Z,5.34
2023-04-16T07:41:31.470Z,5.36
2023-04-16T07:42:31.491Z,5.34
2023-04-16T07:43:31.426Z,5.30
2023-04-16T07:44:31.547Z,5.30
2023-04-16T07:45:31.442Z,5.33
2023-04-16T07:46:45.718Z,5.38
2023-04-16T07:47:31.415Z,5.42
2023-04-16T07:48:31.381Z,5.46
2023-04-16T07:49:31.344Z,5.49
2023-04-16T07:50:31.390Z,5.52
2023-04-16T07:51:31.369Z,5.53
2023-04-16T07:52:31.325Z,5.52
2023-04-16T07:53:31.287Z,5.51
2023-04-16T07:54:31.348Z,5.53
2023-04-16T07:55:31.272Z,5.56
2023-04-16T07:56:31.310Z,5.57
2023-04-16T07:57:31.273Z,5.56
2023-04-16T07:58:31.245Z,5.55
2023-04-16T07:59:31.242Z,5.54
2023-04-16T08:00:31.231Z,5.56
2023-04-16T08:01:31.215Z,5.59
2023-04-16T08:02:31.308Z,5.59
2023-04-16T08:03:31.409Z,5.60
2023-04-16T08:04:31.351Z,5.62
2023-04-16T08:05:31.147Z,5.63
2023-04-16T08:06:31.138Z,5.64
2023-04-16T08:07:32.798Z,5.68
2023-04-16T08:08:31.148Z,5.74
2023-04-16T08:09:31.101Z,5.79
2023-04-16T08:10:31.088Z,5.81
2023-04-16T08:11:31.099Z,5.80
2023-04-16T08:12:31.069Z,5.77
2023-04-16T08:13:33.419Z,5.77
2023-04-16T08:14:31.088Z,5.81
2023-04-16T08:15:31.065Z,5.84
2023-04-16T08:16:30.998Z,5.86
2023-04-16T08:17:31.050Z,5.88
2023-04-16T08:18:31.021Z,5.88
2023-04-16T08:19:30.976Z,5.85
2023-04-16T08:20:30.976Z,5.83
2023-04-16T08:21:30.953Z,5.81
2023-04-16T08:22:30.935Z,5.77
2023-04-16T08:23:30.942Z,5.73
2023-04-16T08:24:30.894Z,5.71
2023-04-16T08:25:30.882Z,5.71
2023-04-16T08:26:30.924Z,5.73
2023-04-16T08:27:30.875Z,5.75
2023-04-16T08:28:30.862Z,5.76
2023-04-16T08:29:30.845Z,5.77
2023-04-16T08:30:30.821Z,5.81
2023-04-16T08:31:30.851Z,5.86
2023-04-16T08:32:30.868Z,5.91
2023-04-16T08:33:30.821Z,5.97
2023-04-16T08:34:30.780Z,6.04
2023-04-16T08:35:30.783Z,6.07
2023-04-16T08:36:30.752Z,6.05
2023-04-16T08:37:30.744Z,6.05
2023-04-16T08:38:30.843Z,6.07
2023-04-16T08:39:30.740Z,6.10
2023-04-16T08:40:30.706Z,6.14
2023-04-16T08:41:30.716Z,6.17
2023-04-16T08:42:30.708Z,6.20
2023-04-16T08:43:30.676Z,6.24
2023-04-16T08:44:30.769Z,6.27
2023-04-16T08:45:30.632Z,6.28
2023-04-16T08:46:30.638Z,6.30
2023-04-16T08:47:30.646Z,6.32
2023-04-16T08:48:30.596Z,6.34
2023-04-16T08:49:30.575Z,6.32
2023-04-16T08:50:30.621Z,6.28
2023-04-16T08:51:30.569Z,6.27
2023-04-16T08:52:30.596Z,6.26
2023-04-16T08:53:30.553Z,6.23
2023-04-16T08:54:30.526Z,6.19
2023-04-16T08:55:30.542Z,6.15
2023-04-16T08:56:30.487Z,6.10
2023-04-16T08:57:30.551Z,6.06
2023-04-16T08:58:30.466Z,6.05
2023-04-16T08:59:30.474Z,6.10
2023-04-16T09:00:30.494Z,6.17
2023-04-16T09:01:30.454Z,6.23
2023-04-16T09:02:30.615Z,6.29
2023-04-16T09:03:30.504Z,6.36
2023-04-16T09:04:30.530Z,6.44
2023-04-16T09:05:30.398Z,6.51
2023-04-16T09:06:30.389Z,6.57
2023-04-16T09:07:30.352Z,6.65
2023-04-16T09:08:30.342Z,6.72
2023-04-16T09:09:30.327Z,6.77
2023-04-16T09:10:30.320Z,6.84
2023-04-16T09:11:30.313Z,6.90
2023-04-16T09:12:30.286Z,6.92
2023-04-16T09:13:30.278Z,6.86
2023-04-16T09:14:30.288Z,6.74
2023-04-16T09:15:30.255Z,6.62
2023-04-16T09:16:30.343Z,6.53
2023-04-16T09:17:30.309Z,6.47
2023-04-16T09:18:30.213Z,6.45
2023-04-16T09:19:30.224Z,6.46
2023-04-16T09:20:30.193Z,6.48
2023-04-16T09:21:30.222Z,6.53
2023-04-16T09:22:30.164Z,6.57
2023-04-16T09:23:30.186Z,6.59
2023-04-16T09:24:30.150Z,6.63
2023-04-16T09:25:30.121Z,6.69
2023-04-16T09:26:30.131Z,6.74
2023-04-16T09:27:30.108Z,6.79
2023-04-16T09:28:30.122Z,6.82
2023-04-16T09:29:30.092Z,6.84
2023-04-16T09:30:30.077Z,6.83
2023-04-16T09:31:30.074Z,6.82
2023-04-16T09:32:30.068Z,6.83
2023-04-16T09:33:30.014Z,6.86
2023-04-16T09:34:30.027Z,6.87
2023-04-16T09:35:30.022Z,6.84
2023-04-16T09:36:29.989Z,6.80
2023-04-16T09:37:29.976Z,6.80
2023-04-16T09:38:30.592Z,6.83
2023-04-16T09:39:29.968Z,6.89
2023-04-16T09:40:29.931Z,6.96
2023-04-16T09:41:29.958Z,7.01
2023-04-16T09:42:29.912Z,7.04
2023-04-16T09:43:29.889Z,7.07
2023-04-16T09:44:29.885Z,7.05
2023-04-16T09:45:29.899Z,7.03
2023-04-16T09:46:29.993Z,7.04
2023-04-16T09:47:29.893Z,7.07
2023-04-16T09:48:29.871Z,7.09
2023-04-16T09:49:29.821Z,7.10
2023-04-16T09:50:29.818Z,7.12
2023-04-16T09:51:29.795Z,7.16
2023-04-16T09:52:29.822Z,7.22
2023-04-16T09:53:29.812Z,7.27
2023-04-16T09:54:29.775Z,7.32
2023-04-16T09:55:29.764Z,7.37
2023-04-16T09:56:30.550Z,7.41
2023-04-16T09:57:29.762Z,7.45
2023-04-16T09:58:29.768Z,7.46
2023-04-16T09:59:29.699Z,7.46
2023-04-16T10:00:29.712Z,7.41
2023-04-16T10:01:29.824Z,7.34
2023-04-16T10:02:29.725Z,7.27
2023-04-16T10:03:29.817Z,7.25
2023-04-16T10:04:29.702Z,7.25
2023-04-16T10:05:29.628Z,7.25
2023-04-16T10:06:29.613Z,7.22
2023-04-16T10:07:29.593Z,7.16
2023-04-16T10:08:29.621Z,7.08
2023-04-16T10:09:29.557Z,7.00
2023-04-16T10:10:29.586Z,6.90
2023-04-16T10:11:29.545Z,6.79
2023-04-16T10:12:29.525Z,6.71
2023-04-16T10:13:29.511Z,6.65
2023-04-16T10:14:29.502Z,6.60
2023-04-16T10:15:29.511Z,6.56
2023-04-16T10:16:29.530Z,6.51
2023-04-16T10:17:29.480Z,6.43
2023-04-16T10:18:29.428Z,6.35
2023-04-16T10:19:29.433Z,6.32
2023-04-16T10:20:29.438Z,6.32
2023-04-16T10:21:29.476Z,6.34
2023-04-16T10:22:29.399Z,6.36
2023-04-16T10:23:29.376Z,6.38
2023-04-16T10:24:29.374Z,6.43
2023-04-16T10:25:29.406Z,6.50
2023-04-16T10:26:29.366Z,6.57
2023-04-16T10:27:29.346Z,6.64
2023-04-16T10:28:29.317Z,6.69
2023-04-16T10:29:29.309Z,6.69
2023-04-16T10:30:29.335Z,6.66
2023-04-16T10:31:29.465Z,6.63
2023-04-16T10:32:29.298Z,6.60
2023-04-16T10:33:29.280Z,6.56
2023-04-16T10:34:29.250Z,6.53
2023-04-16T10:35:29.245Z,6.54
2023-04-16T10:36:29.242Z,6.55
2023-04-16T10:37:29.237Z,6.57
2023-04-16T10:38:29.198Z,6.64
2023-04-16T10:39:29.174Z,6.74
2023-04-16T10:40:29.170Z,6.84
2023-04-16T10:41:29.188Z,6.94
2023-04-16T10:42:29.144Z,7.03
2023-04-16T10:43:29.162Z,7.13
2023-04-16T10:44:29.104Z,7.23
2023-04-16T10:45:29.097Z,7.31
2023-04-16T10:46:29.132Z,7.38
2023-04-16T10:47:29.170Z,7.46
2023-04-16T10:48:35.725Z,7.50
2023-04-16T10:49:29.084Z,7.48
2023-04-16T10:50:29.043Z,7.42
2023-04-16T10:51:29.035Z,7.36
2023-04-16T10:52:29.021Z,7.32
2023-04-16T10:53:29.003Z,7.28
2023-04-16T10:54:29.006Z,7.24
2023-04-16T10:55:28.993Z,7.18
2023-04-16T10:56:29.031Z,7.11
2023-04-16T10:57:28.933Z,7.04
2023-04-16T10:58:28.928Z,6.99
2023-04-16T10:59:28.907Z,6.97
2023-04-16T11:00:28.944Z,6.98
2023-04-16T11:01:28.923Z,7.01
2023-04-16T11:02:29.237Z,7.04
2023-04-16T11:03:29.013Z,7.05
2023-04-16T11:04:28.926Z,7.06
2023-04-16T11:05:28.852Z,7.08
2023-04-16T11:06:28.839Z,7.09
2023-04-16T11:07:28.830Z,7.06
2023-04-16T11:08:28.859Z,7.00
2023-04-16T11:09:28.776Z,6.95
2023-04-16T11:10:28.792Z,6.92
2023-04-16T11:11:28.759Z,6.90
2023-04-16T11:12:28.750Z,6.90
2023-04-16T11:13:28.754Z,6.90
2023-04-16T11:14:28.714Z,6.88
2023-04-16T11:15:28.722Z,6.87
2023-04-16T11:16:28.724Z,6.83
2023-04-16T11:17:28.699Z,6.78
2023-04-16T11:18:28.685Z,6.77
2023-04-16T11:19:28.680Z,6.79
2023-04-16T11:20:28.643Z,6.82
2023-04-16T11:21:28.672Z,6.84
2023-04-16T11:22:28.624Z,6.83
2023-04-16T11:23:28.625Z,6.84
2023-04-16T11:24:28.606Z,6.87
2023-04-16T11:25:28.578Z,6.88
2023-04-16T11:26:28.605Z,6.89
2023-04-16T11:27:28.599Z,6.92
2023-04-16T11:28:28.537Z,6.96
2023-04-16T11:29:28.520Z,6.99
2023-04-16T11:30:28.518Z,7.01
2023-04-16T11:31:28.538Z,7.03
2023-04-16T11:32:28.579Z,7.04
2023-04-16T11:33:28.524Z,7.04
2023-04-16T11:34:28.478Z,7.05
2023-04-16T11:35:28.465Z,7.07
2023-04-16T11:36:28.475Z,7.09
2023-04-16T11:37:28.439Z,7.14
2023-04-16T11:38:28.432Z,7.26
2023-04-16T11:39:28.460Z,7.36
2023-04-16T11:40:28.383Z,7.41
2023-04-16T11:41:28.402Z,7.40
2023-04-16T11:42:28.507Z,7.38
2023-04-16T11:43:28.345Z,7.39
2023-04-16T11:44:28.360Z,7.39
2023-04-16T11:45:28.338Z,7.30
2023-04-16T11:46:28.392Z,7.17
2023-04-16T11:47:28.350Z,7.10
2023-04-16T11:48:28.286Z,7.10
2023-04-16T11:49:28.291Z,7.14
2023-04-16T11:50:28.347Z,7.18
2023-04-16T11:51:28.242Z,7.24
2023-04-16T11:52:28.254Z,7.30
2023-04-16T11:53:28.228Z,7.36
2023-04-16T11:54:28.232Z,7.38
2023-04-16T11:55:28.209Z,7.38
2023-04-16T11:56:28.200Z,7.37
2023-04-16T11:57:28.181Z,7.39
2023-04-16T11:58:28.170Z,7.47
2023-04-16T11:59:28.174Z,7.55
2023-04-16T12:00:28.174Z,7.62
2023-04-16T12:01:28.115Z,7.69
2023-04-16T12:02:28.227Z,7.74
2023-04-16T12:03:28.290Z,7.77
2023-04-16T12:04:28.158Z,7.79
2023-04-16T12:05:28.068Z,7.85
2023-04-16T12:06:28.049Z,7.92
2023-04-16T12:07:28.076Z,7.96
2023-04-16T12:08:28.053Z,7.96
2023-04-16T12:09:28.006Z,7.91
2023-04-16T12:10:28.017Z,7.86
2023-04-16T12:11:27.988Z,7.83
2023-04-16T12:12:28.100Z,7.83
2023-04-16T12:13:28.087Z,7.82
2023-04-16T12:14:27.985Z,7.80
2023-04-16T12:15:27.976Z,7.80
2023-04-16T12:16:27.956Z,7.83
2023-04-16T12:17:27.938Z,7.88
2023-04-16T12:18:27.960Z,7.93
2023-04-16T12:19:27.918Z,7.97
2023-04-16T12:20:27.883Z,8.01
2023-04-16T12:21:27.875Z,8.02
2023-04-16T12:22:27.845Z,8.03
2023-04-16T12:23:27.850Z,8.07
2023-04-16T12:24:27.832Z,8.12
2023-04-16T12:25:27.828Z,8.16
2023-04-16T12:26:27.846Z,8.18
2023-04-16T12:27:27.781Z,8.22
2023-04-16T12:28:27.812Z,8.26
2023-04-16T12:29:27.774Z,8.24
2023-04-16T12:30:27.752Z,8.20
2023-04-16T12:31:27.860Z,8.20
2023-04-16T12:32:27.787Z,8.21
2023-04-16T12:33:27.711Z,8.21
2023-04-16T12:34:36.547Z,8.22
2023-04-16T12:35:27.682Z,8.23
2023-04-16T12:36:27.670Z,8.22
2023-04-16T12:37:27.709Z,8.22
2023-04-16T12:38:27.717Z,8.24
2023-04-16T12:39:27.681Z,8.28
2023-04-16T12:40:27.666Z,8.31
2023-04-16T12:41:27.611Z,8.32
2023-04-16T12:42:27.741Z,8.33
2023-04-16T12:43:27.647Z,8.34
2023-04-16T12:44:27.584Z,8.30
2023-04-16T12:45:27.555Z,8.26
2023-04-16T12:46:27.597Z,8.21
2023-04-16T12:47:27.591Z,8.07
2023-04-16T12:48:27.512Z,7.90
2023-04-16T12:49:27.524Z,7.75
2023-04-16T12:50:27.563Z,7.59
2023-04-16T12:51:27.511Z,7.44
2023-04-16T12:52:27.470Z,7.33
2023-04-16T12:53:27.448Z,7.27
2023-04-16T12:54:27.442Z,7.25
2023-04-16T12:55:27.648Z,7.26
2023-04-16T12:56:27.464Z,7.32
2023-04-16T12:57:27.416Z,7.39
2023-04-16T12:58:27.391Z,7.46
2023-04-16T12:59:27.375Z,7.54
2023-04-16T13:00:27.381Z,7.58
2023-04-16T13:01:27.461Z,7.58
2023-04-16T13:02:27.500Z,7.59
2023-04-16T13:03:27.485Z,7.61
2023-04-16T13:04:27.460Z,7.64
2023-04-16T13:05:27.322Z,7.67
2023-04-16T13:06:27.360Z,7.64
2023-04-16T13:07:27.274Z,7.60
2023-04-16T13:08:27.264Z,7.58
2023-04-16T13:09:27.261Z,7.57
2023-04-16T13:10:27.248Z,7.54
2023-04-16T13:11:27.219Z,7.50
2023-04-16T13:12:27.252Z,7.45
2023-04-16T13:13:27.201Z,7.41
2023-04-16T13:14:27.203Z,7.38
2023-04-16T13:15:27.177Z,7.37
2023-04-16T13:16:27.219Z,7.39
2023-04-16T13:17:27.184Z,7.41
2023-04-16T13:18:27.245Z,7.42
2023-04-16T13:19:27.148Z,7.42
2023-04-16T13:20:27.122Z,7.39